sensor_id;sensor_type;location;lat;lon;timestamp;P1;durP1;ratioP1;P2;durP2;ratioP2
47784;SDS011;35233;55.686;37.848;2023-10-19T00:00:34;8.85;;;4.60;;
47784;SDS011;35233;55.686;37.848;2023-10-19T00:03:01;5.88;;;4.25;;
47784;SDS011;35233;55.686;37.848;2023-10-19T00:05:28;6.18;;;4.82;;
47784;SDS011;35233;55.686;37.848;2023-10-19T00:07:56;7.57;;;4.78;;
47784;SDS011;35233;55.686;37.848;2023-10-19T00:10:25;6.78;;;4.75;;
47784;SDS011;35233;55.686;37.848;2023-10-19T00:12:55;7.97;;;5.10;;
47784;SDS011;35233;55.686;37.848;2023-10-19T00:15:31;6.37;;;4.30;;
47784;SDS011;35233;55.686;37.848;2023-10-19T00:18:03;6.47;;;4.80;;
47784;SDS011;35233;55.686;37.848;2023-10-19T00:20:40;6.50;;;4.63;;
47784;SDS011;35233;55.686;37.848;2023-10-19T00:23:06;8.18;;;5.38;;
47784;SDS011;35233;55.686;37.848;2023-10-19T00:25:32;7.97;;;5.25;;
47784;SDS011;35233;55.686;37.848;2023-10-19T00:28:00;6.47;;;4.85;;
47784;SDS011;35233;55.686;37.848;2023-10-19T00:30:29;6.78;;;4.80;;
47784;SDS011;35233;55.686;37.848;2023-10-19T00:32:58;6.03;;;4.90;;
47784;SDS011;35233;55.686;37.848;2023-10-19T00:35:28;7.68;;;5.22;;
47784;SDS011;35233;55.686;37.848;2023-10-19T00:38:07;7.43;;;5.18;;
47784;SDS011;35233;55.686;37.848;2023-10-19T00:40:55;7.03;;;5.30;;
47784;SDS011;35233;55.686;37.848;2023-10-19T00:43:36;9.98;;;5.35;;
47784;SDS011;35233;55.686;37.848;2023-10-19T00:46:12;7.70;;;5.30;;
47784;SDS011;35233;55.686;37.848;2023-10-19T00:48:45;7.90;;;5.50;;
47784;SDS011;35233;55.686;37.848;2023-10-19T00:51:29;7.72;;;5.10;;
47784;SDS011;35233;55.686;37.848;2023-10-19T00:54:20;7.07;;;5.03;;
47784;SDS011;35233;55.686;37.848;2023-10-19T00:57:05;8.00;;;6.00;;
47784;SDS011;35233;55.686;37.848;2023-10-19T00:59:37;7.68;;;5.65;;
47784;SDS011;35233;55.686;37.848;2023-10-19T01:02:14;7.90;;;5.50;;
47784;SDS011;35233;55.686;37.848;2023-10-19T01:05:06;7.43;;;5.32;;
47784;SDS011;35233;55.686;37.848;2023-10-19T01:07:33;7.78;;;5.10;;
47784;SDS011;35233;55.686;37.848;2023-10-19T01:10:03;8.27;;;5.32;;
47784;SDS011;35233;55.686;37.848;2023-10-19T01:12:48;7.57;;;5.15;;
47784;SDS011;35233;55.686;37.848;2023-10-19T01:15:18;7.45;;;5.50;;
47784;SDS011;35233;55.686;37.848;2023-10-19T01:17:54;8.15;;;5.78;;
47784;SDS011;35233;55.686;37.848;2023-10-19T01:25:44;7.70;;;5.80;;
47784;SDS011;35233;55.686;37.848;2023-10-19T01:28:20;8.10;;;6.03;;
47784;SDS011;35233;55.686;37.848;2023-10-19T01:30:49;8.63;;;6.38;;
47784;SDS011;35233;55.686;37.848;2023-10-19T01:33:18;7.30;;;5.55;;
47784;SDS011;35233;55.686;37.848;2023-10-19T01:35:44;6.60;;;5.07;;
47784;SDS011;35233;55.686;37.848;2023-10-19T01:38:28;8.63;;;6.25;;
47784;SDS011;35233;55.686;37.848;2023-10-19T01:41:01;7.53;;;5.80;;
47784;SDS011;35233;55.686;37.848;2023-10-19T01:43:32;8.18;;;5.40;;
47784;SDS011;35233;55.686;37.848;2023-10-19T01:45:58;7.75;;;5.40;;
47784;SDS011;35233;55.686;37.848;2023-10-19T01:48:36;9.10;;;5.80;;
47784;SDS011;35233;55.686;37.848;2023-10-19T01:51:04;6.70;;;5.20;;
47784;SDS011;35233;55.686;37.848;2023-10-19T01:53:33;7.15;;;5.05;;
47784;SDS011;35233;55.686;37.848;2023-10-19T01:56:05;6.85;;;5.30;;
47784;SDS011;35233;55.686;37.848;2023-10-19T01:58:34;8.50;;;5.72;;
47784;SDS011;35233;55.686;37.848;2023-10-19T02:01:05;6.70;;;5.30;;
47784;SDS011;35233;55.686;37.848;2023-10-19T02:03:45;6.85;;;5.32;;
47784;SDS011;35233;55.686;37.848;2023-10-19T02:06:12;8.07;;;5.20;;
47784;SDS011;35233;55.686;37.848;2023-10-19T02:11:21;7.22;;;5.15;;
47784;SDS011;35233;55.686;37.848;2023-10-19T02:13:51;7.38;;;5.00;;
47784;SDS011;35233;55.686;37.848;2023-10-19T02:16:19;8.05;;;5.22;;
47784;SDS011;35233;55.686;37.848;2023-10-19T02:18:49;7.13;;;5.22;;
47784;SDS011;35233;55.686;37.848;2023-10-19T02:21:15;8.75;;;5.90;;
47784;SDS011;35233;55.686;37.848;2023-10-19T02:23:47;7.78;;;5.40;;
47784;SDS011;35233;55.686;37.848;2023-10-19T02:26:18;7.07;;;5.07;;
47784;SDS011;35233;55.686;37.848;2023-10-19T02:28:55;8.00;;;4.97;;
47784;SDS011;35233;55.686;37.848;2023-10-19T02:31:21;6.50;;;4.70;;
47784;SDS011;35233;55.686;37.848;2023-10-19T02:33:51;7.68;;;4.80;;
47784;SDS011;35233;55.686;37.848;2023-10-19T02:36:24;6.68;;;4.35;;
47784;SDS011;35233;55.686;37.848;2023-10-19T02:38:55;8.20;;;5.32;;
47784;SDS011;35233;55.686;37.848;2023-10-19T02:41:24;6.93;;;5.22;;
47784;SDS011;35233;55.686;37.848;2023-10-19T02:43:52;7.75;;;5.20;;
47784;SDS011;35233;55.686;37.848;2023-10-19T02:46:29;7.07;;;4.97;;
47784;SDS011;35233;55.686;37.848;2023-10-19T02:49:01;6.55;;;4.90;;
47784;SDS011;35233;55.686;37.848;2023-10-19T02:51:28;6.72;;;4.90;;
47784;SDS011;35233;55.686;37.848;2023-10-19T02:53:55;7.63;;;4.82;;
47784;SDS011;35233;55.686;37.848;2023-10-19T02:56:20;6.97;;;4.70;;
47784;SDS011;35233;55.686;37.848;2023-10-19T02:58:48;6.07;;;4.47;;
47784;SDS011;35233;55.686;37.848;2023-10-19T03:03:55;6.00;;;4.78;;
47784;SDS011;35233;55.686;37.848;2023-10-19T03:06:25;5.95;;;4.57;;
47784;SDS011;35233;55.686;37.848;2023-10-19T03:08:51;6.85;;;4.78;;
47784;SDS011;35233;55.686;37.848;2023-10-19T03:11:25;7.22;;;4.65;;
47784;SDS011;35233;55.686;37.848;2023-10-19T03:13:52;7.05;;;4.60;;
47784;SDS011;35233;55.686;37.848;2023-10-19T03:16:22;6.95;;;4.35;;
47784;SDS011;35233;55.686;37.848;2023-10-19T03:18:48;5.93;;;4.40;;
47784;SDS011;35233;55.686;37.848;2023-10-19T03:21:16;6.70;;;4.50;;
47784;SDS011;35233;55.686;37.848;2023-10-19T03:23:42;7.70;;;4.72;;
47784;SDS011;35233;55.686;37.848;2023-10-19T03:26:08;6.07;;;4.70;;
47784;SDS011;35233;55.686;37.848;2023-10-19T03:28:52;5.63;;;4.38;;
47784;SDS011;35233;55.686;37.848;2023-10-19T03:31:21;6.85;;;4.70;;
47784;SDS011;35233;55.686;37.848;2023-10-19T03:33:48;7.38;;;4.60;;
47784;SDS011;35233;55.686;37.848;2023-10-19T03:36:18;6.80;;;4.72;;
47784;SDS011;35233;55.686;37.848;2023-10-19T03:38:44;7.82;;;4.53;;
47784;SDS011;35233;55.686;37.848;2023-10-19T03:41:11;6.22;;;4.75;;
47784;SDS011;35233;55.686;37.848;2023-10-19T03:43:36;7.57;;;4.97;;
47784;SDS011;35233;55.686;37.848;2023-10-19T03:46:05;6.47;;;4.75;;
47784;SDS011;35233;55.686;37.848;2023-10-19T03:48:47;6.13;;;4.47;;
47784;SDS011;35233;55.686;37.848;2023-10-19T03:51:12;6.30;;;4.70;;
47784;SDS011;35233;55.686;37.848;2023-10-19T03:53:39;6.85;;;4.50;;
47784;SDS011;35233;55.686;37.848;2023-10-19T03:56:11;6.68;;;4.60;;
47784;SDS011;35233;55.686;37.848;2023-10-19T03:58:37;6.13;;;4.53;;
47784;SDS011;35233;55.686;37.848;2023-10-19T04:01:05;7.03;;;4.43;;
47784;SDS011;35233;55.686;37.848;2023-10-19T04:03:30;5.95;;;4.18;;
47784;SDS011;35233;55.686;37.848;2023-10-19T04:05:56;5.68;;;4.32;;
47784;SDS011;35233;55.686;37.848;2023-10-19T04:08:26;6.25;;;4.40;;
47784;SDS011;35233;55.686;37.848;2023-10-19T04:10:52;6.18;;;4.30;;
47784;SDS011;35233;55.686;37.848;2023-10-19T04:13:34;7.47;;;4.20;;
47784;SDS011;35233;55.686;37.848;2023-10-19T04:16:03;6.22;;;4.22;;
47784;SDS011;35233;55.686;37.848;2023-10-19T04:18:28;8.13;;;4.50;;
47784;SDS011;35233;55.686;37.848;2023-10-19T04:20:54;6.63;;;4.43;;
47784;SDS011;35233;55.686;37.848;2023-10-19T04:23:23;6.80;;;4.50;;
47784;SDS011;35233;55.686;37.848;2023-10-19T04:25:55;7.30;;;4.20;;
47784;SDS011;35233;55.686;37.848;2023-10-19T04:28:29;4.70;;;3.95;;
47784;SDS011;35233;55.686;37.848;2023-10-19T04:31:09;6.05;;;4.00;;
47784;SDS011;35233;55.686;37.848;2023-10-19T04:33:38;7.38;;;5.20;;
47784;SDS011;35233;55.686;37.848;2023-10-19T04:36:07;6.53;;;4.63;;
47784;SDS011;35233;55.686;37.848;2023-10-19T04:38:36;6.68;;;5.13;;
47784;SDS011;35233;55.686;37.848;2023-10-19T04:41:08;6.68;;;4.70;;
47784;SDS011;35233;55.686;37.848;2023-10-19T04:43:35;7.82;;;5.95;;
47784;SDS011;35233;55.686;37.848;2023-10-19T04:46:06;9.73;;;6.43;;
47784;SDS011;35233;55.686;37.848;2023-10-19T04:48:35;8.45;;;6.30;;
47784;SDS011;35233;55.686;37.848;2023-10-19T04:51:02;7.70;;;5.50;;
47784;SDS011;35233;55.686;37.848;2023-10-19T04:53:30;9.20;;;6.45;;
47784;SDS011;35233;55.686;37.848;2023-10-19T04:55:56;10.55;;;6.57;;
47784;SDS011;35233;55.686;37.848;2023-10-19T04:58:21;12.55;;;7.22;;
47784;SDS011;35233;55.686;37.848;2023-10-19T05:00:47;10.15;;;7.75;;
47784;SDS011;35233;55.686;37.848;2023-10-19T05:03:14;13.20;;;8.30;;
47784;SDS011;35233;55.686;37.848;2023-10-19T05:05:43;11.82;;;8.18;;
47784;SDS011;35233;55.686;37.848;2023-10-19T05:08:09;11.48;;;8.05;;
47784;SDS011;35233;55.686;37.848;2023-10-19T05:10:34;13.05;;;8.95;;
47784;SDS011;35233;55.686;37.848;2023-10-19T05:13:00;13.82;;;8.30;;
47784;SDS011;35233;55.686;37.848;2023-10-19T05:15:25;11.70;;;7.85;;
47784;SDS011;35233;55.686;37.848;2023-10-19T05:17:51;14.40;;;8.60;;
47784;SDS011;35233;55.686;37.848;2023-10-19T05:20:16;12.02;;;8.15;;
47784;SDS011;35233;55.686;37.848;2023-10-19T05:22:43;10.60;;;7.97;;
47784;SDS011;35233;55.686;37.848;2023-10-19T05:25:08;10.55;;;8.00;;
47784;SDS011;35233;55.686;37.848;2023-10-19T05:27:34;13.82;;;8.77;;
47784;SDS011;35233;55.686;37.848;2023-10-19T05:30:00;13.20;;;8.07;;
47784;SDS011;35233;55.686;37.848;2023-10-19T05:32:25;12.32;;;8.73;;
47784;SDS011;35233;55.686;37.848;2023-10-19T05:34:51;20.85;;;9.98;;
47784;SDS011;35233;55.686;37.848;2023-10-19T05:37:16;20.33;;;9.75;;
47784;SDS011;35233;55.686;37.848;2023-10-19T05:39:43;19.67;;;10.57;;
47784;SDS011;35233;55.686;37.848;2023-10-19T05:42:09;23.60;;;11.05;;
47784;SDS011;35233;55.686;37.848;2023-10-19T05:44:34;21.45;;;11.10;;
47784;SDS011;35233;55.686;37.848;2023-10-19T05:47:00;19.13;;;10.68;;
47784;SDS011;35233;55.686;37.848;2023-10-19T05:49:25;21.75;;;11.98;;
47784;SDS011;35233;55.686;37.848;2023-10-19T05:51:51;19.35;;;11.90;;
47784;SDS011;35233;55.686;37.848;2023-10-19T05:54:17;22.42;;;12.32;;
47784;SDS011;35233;55.686;37.848;2023-10-19T05:56:43;22.00;;;13.10;;
47784;SDS011;35233;55.686;37.848;2023-10-19T05:59:08;26.15;;;14.13;;
47784;SDS011;35233;55.686;37.848;2023-10-19T06:01:35;22.95;;;13.38;;
47784;SDS011;35233;55.686;37.848;2023-10-19T06:04:02;22.00;;;13.50;;
47784;SDS011;35233;55.686;37.848;2023-10-19T06:06:28;22.00;;;14.02;;
47784;SDS011;35233;55.686;37.848;2023-10-19T06:08:54;23.73;;;14.90;;
47784;SDS011;35233;55.686;37.848;2023-10-19T06:11:20;24.85;;;15.45;;
47784;SDS011;35233;55.686;37.848;2023-10-19T06:13:46;21.67;;;14.25;;
47784;SDS011;35233;55.686;37.848;2023-10-19T06:16:12;24.70;;;15.13;;
47784;SDS011;35233;55.686;37.848;2023-10-19T06:18:39;26.50;;;16.10;;
47784;SDS011;35233;55.686;37.848;2023-10-19T06:21:05;26.48;;;15.77;;
47784;SDS011;35233;55.686;37.848;2023-10-19T06:23:31;23.77;;;15.27;;
47784;SDS011;35233;55.686;37.848;2023-10-19T06:25:57;23.67;;;14.80;;
47784;SDS011;35233;55.686;37.848;2023-10-19T06:28:23;23.23;;;14.93;;
47784;SDS011;35233;55.686;37.848;2023-10-19T06:30:48;20.70;;;14.13;;
47784;SDS011;35233;55.686;37.848;2023-10-19T06:33:15;24.75;;;14.88;;
47784;SDS011;35233;55.686;37.848;2023-10-19T06:35:41;21.55;;;14.02;;
47784;SDS011;35233;55.686;37.848;2023-10-19T06:38:07;21.05;;;13.77;;
47784;SDS011;35233;55.686;37.848;2023-10-19T06:40:34;22.83;;;13.80;;
47784;SDS011;35233;55.686;37.848;2023-10-19T06:43:03;21.02;;;13.70;;
47784;SDS011;35233;55.686;37.848;2023-10-19T06:45:30;17.35;;;11.90;;
47784;SDS011;35233;55.686;37.848;2023-10-19T06:47:57;19.60;;;13.40;;
47784;SDS011;35233;55.686;37.848;2023-10-19T06:50:25;16.70;;;12.07;;
47784;SDS011;35233;55.686;37.848;2023-10-19T06:52:51;17.88;;;12.13;;
47784;SDS011;35233;55.686;37.848;2023-10-19T06:55:19;19.73;;;12.48;;
47784;SDS011;35233;55.686;37.848;2023-10-19T06:57:47;16.17;;;10.95;;
47784;SDS011;35233;55.686;37.848;2023-10-19T07:00:17;18.67;;;12.35;;
47784;SDS011;35233;55.686;37.848;2023-10-19T07:02:48;16.27;;;11.02;;
47784;SDS011;35233;55.686;37.848;2023-10-19T07:05:16;16.83;;;11.60;;
47784;SDS011;35233;55.686;37.848;2023-10-19T07:07:55;18.63;;;11.68;;
47784;SDS011;35233;55.686;37.848;2023-10-19T07:10:24;14.63;;;10.57;;
47784;SDS011;35233;55.686;37.848;2023-10-19T07:12:52;17.25;;;11.00;;
47784;SDS011;35233;55.686;37.848;2023-10-19T07:15:19;17.23;;;10.40;;
47784;SDS011;35233;55.686;37.848;2023-10-19T07:17:45;13.82;;;10.15;;
47784;SDS011;35233;55.686;37.848;2023-10-19T07:20:13;14.63;;;10.52;;
47784;SDS011;35233;55.686;37.848;2023-10-19T07:22:55;15.93;;;9.82;;
47784;SDS011;35233;55.686;37.848;2023-10-19T07:25:22;14.32;;;10.13;;
47784;SDS011;35233;55.686;37.848;2023-10-19T07:27:51;17.23;;;11.68;;
47784;SDS011;35233;55.686;37.848;2023-10-19T07:30:18;15.27;;;10.50;;
47784;SDS011;35233;55.686;37.848;2023-10-19T07:32:51;14.88;;;10.48;;
47784;SDS011;35233;55.686;37.848;2023-10-19T07:35:21;17.15;;;11.23;;
47784;SDS011;35233;55.686;37.848;2023-10-19T07:37:48;15.73;;;10.82;;
47784;SDS011;35233;55.686;37.848;2023-10-19T07:40:16;14.88;;;10.88;;
47784;SDS011;35233;55.686;37.848;2023-10-19T07:42:43;15.18;;;10.95;;
47784;SDS011;35233;55.686;37.848;2023-10-19T07:45:10;16.55;;;11.25;;
47784;SDS011;35233;55.686;37.848;2023-10-19T07:47:41;15.65;;;10.40;;
47784;SDS011;35233;55.686;37.848;2023-10-19T07:50:07;14.73;;;9.98;;
47784;SDS011;35233;55.686;37.848;2023-10-19T07:52:46;16.92;;;10.85;;
47784;SDS011;35233;55.686;37.848;2023-10-19T07:55:14;15.68;;;10.50;;
47784;SDS011;35233;55.686;37.848;2023-10-19T07:57:41;15.02;;;10.23;;
47784;SDS011;35233;55.686;37.848;2023-10-19T08:00:07;16.65;;;10.93;;
47784;SDS011;35233;55.686;37.848;2023-10-19T08:02:35;14.93;;;10.85;;
47784;SDS011;35233;55.686;37.848;2023-10-19T08:05:03;14.27;;;10.40;;
47784;SDS011;35233;55.686;37.848;2023-10-19T08:07:32;15.00;;;10.18;;
47784;SDS011;35233;55.686;37.848;2023-10-19T08:09:59;14.40;;;9.38;;
47784;SDS011;35233;55.686;37.848;2023-10-19T08:12:25;16.25;;;11.25;;
47784;SDS011;35233;55.686;37.848;2023-10-19T08:14:57;16.30;;;10.63;;
47784;SDS011;35233;55.686;37.848;2023-10-19T08:17:22;14.27;;;10.18;;
47784;SDS011;35233;55.686;37.848;2023-10-19T08:19:49;15.13;;;10.77;;
47784;SDS011;35233;55.686;37.848;2023-10-19T08:22:15;14.45;;;10.40;;
47784;SDS011;35233;55.686;37.848;2023-10-19T08:24:41;15.65;;;10.32;;
47784;SDS011;35233;55.686;37.848;2023-10-19T08:27:11;15.05;;;10.15;;
47784;SDS011;35233;55.686;37.848;2023-10-19T08:29:38;15.52;;;10.55;;
47784;SDS011;35233;55.686;37.848;2023-10-19T08:32:04;14.07;;;11.10;;
47784;SDS011;35233;55.686;37.848;2023-10-19T08:34:33;15.35;;;11.05;;
47784;SDS011;35233;55.686;37.848;2023-10-19T08:37:01;14.90;;;9.82;;
47784;SDS011;35233;55.686;37.848;2023-10-19T08:39:27;15.13;;;10.10;;
47784;SDS011;35233;55.686;37.848;2023-10-19T08:41:53;15.90;;;10.57;;
47784;SDS011;35233;55.686;37.848;2023-10-19T08:44:20;13.40;;;9.98;;
47784;SDS011;35233;55.686;37.848;2023-10-19T08:46:46;13.73;;;10.05;;
47784;SDS011;35233;55.686;37.848;2023-10-19T08:49:17;13.55;;;9.88;;
47784;SDS011;35233;55.686;37.848;2023-10-19T08:51:45;14.77;;;10.60;;
47784;SDS011;35233;55.686;37.848;2023-10-19T08:54:12;14.20;;;10.27;;
47784;SDS011;35233;55.686;37.848;2023-10-19T08:56:41;13.73;;;9.43;;
47784;SDS011;35233;55.686;37.848;2023-10-19T08:59:07;13.63;;;9.38;;
47784;SDS011;35233;55.686;37.848;2023-10-19T09:01:36;14.07;;;9.25;;
47784;SDS011;35233;55.686;37.848;2023-10-19T09:04:02;15.05;;;10.20;;
47784;SDS011;35233;55.686;37.848;2023-10-19T09:06:30;14.90;;;10.20;;
47784;SDS011;35233;55.686;37.848;2023-10-19T09:09:09;13.13;;;9.07;;
47784;SDS011;35233;55.686;37.848;2023-10-19T09:11:41;13.80;;;9.50;;
47784;SDS011;35233;55.686;37.848;2023-10-19T09:14:08;14.38;;;10.15;;
47784;SDS011;35233;55.686;37.848;2023-10-19T09:16:33;14.85;;;9.88;;
47784;SDS011;35233;55.686;37.848;2023-10-19T09:18:59;13.40;;;9.45;;
47784;SDS011;35233;55.686;37.848;2023-10-19T09:21:24;14.20;;;8.77;;
47784;SDS011;35233;55.686;37.848;2023-10-19T09:23:50;14.85;;;9.48;;
47784;SDS011;35233;55.686;37.848;2023-10-19T09:26:17;13.20;;;9.80;;
47784;SDS011;35233;55.686;37.848;2023-10-19T09:28:45;14.25;;;9.55;;
47784;SDS011;35233;55.686;37.848;2023-10-19T09:31:12;14.88;;;9.43;;
47784;SDS011;35233;55.686;37.848;2023-10-19T09:33:40;14.13;;;9.60;;
47784;SDS011;35233;55.686;37.848;2023-10-19T09:36:06;13.93;;;9.52;;
47784;SDS011;35233;55.686;37.848;2023-10-19T09:41:11;14.65;;;10.75;;
47784;SDS011;35233;55.686;37.848;2023-10-19T09:43:40;14.23;;;9.65;;
47784;SDS011;35233;55.686;37.848;2023-10-19T09:46:12;15.20;;;10.63;;
47784;SDS011;35233;55.686;37.848;2023-10-19T09:48:42;13.88;;;9.82;;
47784;SDS011;35233;55.686;37.848;2023-10-19T09:51:11;16.17;;;10.48;;
47784;SDS011;35233;55.686;37.848;2023-10-19T09:53:38;14.85;;;10.25;;
47784;SDS011;35233;55.686;37.848;2023-10-19T09:56:10;17.70;;;11.50;;
47784;SDS011;35233;55.686;37.848;2023-10-19T09:58:41;14.73;;;10.45;;
47784;SDS011;35233;55.686;37.848;2023-10-19T10:01:11;14.10;;;10.40;;
47784;SDS011;35233;55.686;37.848;2023-10-19T10:06:31;14.60;;;10.50;;
47784;SDS011;35233;55.686;37.848;2023-10-19T10:09:17;14.88;;;10.68;;
47784;SDS011;35233;55.686;37.848;2023-10-19T10:11:48;15.00;;;11.02;;
47784;SDS011;35233;55.686;37.848;2023-10-19T10:14:21;15.63;;;11.43;;
47784;SDS011;35233;55.686;37.848;2023-10-19T10:17:10;15.88;;;11.57;;
47784;SDS011;35233;55.686;37.848;2023-10-19T10:19:43;15.88;;;11.43;;
47784;SDS011;35233;55.686;37.848;2023-10-19T10:22:10;16.15;;;11.88;;
47784;SDS011;35233;55.686;37.848;2023-10-19T10:24:46;14.35;;;10.98;;
47784;SDS011;35233;55.686;37.848;2023-10-19T10:27:11;15.02;;;11.00;;
47784;SDS011;35233;55.686;37.848;2023-10-19T10:29:58;13.93;;;10.70;;
47784;SDS011;35233;55.686;37.848;2023-10-19T10:35:30;16.47;;;11.20;;
47784;SDS011;35233;55.686;37.848;2023-10-19T10:38:02;14.68;;;11.13;;
47784;SDS011;35233;55.686;37.848;2023-10-19T10:40:31;16.20;;;12.02;;
47784;SDS011;35233;55.686;37.848;2023-10-19T10:43:07;18.00;;;11.93;;
47784;SDS011;35233;55.686;37.848;2023-10-19T10:45:32;15.77;;;11.32;;
47784;SDS011;35233;55.686;37.848;2023-10-19T10:47:58;15.88;;;11.70;;
47784;SDS011;35233;55.686;37.848;2023-10-19T10:50:26;17.00;;;12.60;;
47784;SDS011;35233;55.686;37.848;2023-10-19T10:52:53;15.63;;;11.95;;
47784;SDS011;35233;55.686;37.848;2023-10-19T10:55:22;17.23;;;12.52;;
47784;SDS011;35233;55.686;37.848;2023-10-19T10:57:50;17.33;;;12.68;;
47784;SDS011;35233;55.686;37.848;2023-10-19T11:00:16;16.90;;;12.98;;
47784;SDS011;35233;55.686;37.848;2023-10-19T11:02:43;17.33;;;13.23;;
47784;SDS011;35233;55.686;37.848;2023-10-19T11:05:15;17.45;;;13.55;;
47784;SDS011;35233;55.686;37.848;2023-10-19T11:08:03;19.13;;;13.68;;
47784;SDS011;35233;55.686;37.848;2023-10-19T11:13:03;19.70;;;15.10;;
47784;SDS011;35233;55.686;37.848;2023-10-19T11:15:35;19.77;;;15.05;;
47784;SDS011;35233;55.686;37.848;2023-10-19T11:18:07;19.77;;;15.20;;
47784;SDS011;35233;55.686;37.848;2023-10-19T11:20:32;22.10;;;16.92;;
47784;SDS011;35233;55.686;37.848;2023-10-19T11:22:59;21.00;;;15.95;;
47784;SDS011;35233;55.686;37.848;2023-10-19T11:25:28;21.13;;;16.33;;
47784;SDS011;35233;55.686;37.848;2023-10-19T11:27:55;20.50;;;16.30;;
47784;SDS011;35233;55.686;37.848;2023-10-19T11:30:22;22.58;;;16.55;;
47784;SDS011;35233;55.686;37.848;2023-10-19T11:32:49;22.05;;;17.25;;
47784;SDS011;35233;55.686;37.848;2023-10-19T11:35:18;24.80;;;18.60;;
47784;SDS011;35233;55.686;37.848;2023-10-19T11:37:50;22.48;;;17.90;;
47784;SDS011;35233;55.686;37.848;2023-10-19T11:40:18;23.92;;;18.40;;
47784;SDS011;35233;55.686;37.848;2023-10-19T11:42:44;24.63;;;18.70;;
47784;SDS011;35233;55.686;37.848;2023-10-19T11:45:10;23.83;;;18.08;;
47784;SDS011;35233;55.686;37.848;2023-10-19T11:47:37;22.00;;;17.48;;
47784;SDS011;35233;55.686;37.848;2023-10-19T11:50:02;20.98;;;17.77;;
47784;SDS011;35233;55.686;37.848;2023-10-19T11:52:28;22.20;;;16.63;;
47784;SDS011;35233;55.686;37.848;2023-10-19T11:54:55;22.08;;;17.52;;
47784;SDS011;35233;55.686;37.848;2023-10-19T11:57:21;20.25;;;16.42;;
47784;SDS011;35233;55.686;37.848;2023-10-19T11:59:46;20.20;;;15.77;;
47784;SDS011;35233;55.686;37.848;2023-10-19T12:02:20;20.23;;;16.20;;
47784;SDS011;35233;55.686;37.848;2023-10-19T12:04:46;18.38;;;14.75;;
47784;SDS011;35233;55.686;37.848;2023-10-19T12:07:12;18.63;;;15.13;;
47784;SDS011;35233;55.686;37.848;2023-10-19T12:09:37;17.88;;;14.65;;
47784;SDS011;35233;55.686;37.848;2023-10-19T12:12:06;19.35;;;15.32;;
47784;SDS011;35233;55.686;37.848;2023-10-19T12:14:34;18.13;;;14.18;;
47784;SDS011;35233;55.686;37.848;2023-10-19T12:17:00;20.45;;;14.77;;
47784;SDS011;35233;55.686;37.848;2023-10-19T12:19:29;20.33;;;13.98;;
47784;SDS011;35233;55.686;37.848;2023-10-19T12:21:55;19.33;;;13.88;;
47784;SDS011;35233;55.686;37.848;2023-10-19T12:24:21;16.83;;;12.98;;
47784;SDS011;35233;55.686;37.848;2023-10-19T12:26:47;14.95;;;12.30;;
47784;SDS011;35233;55.686;37.848;2023-10-19T12:29:12;17.67;;;13.18;;
47784;SDS011;35233;55.686;37.848;2023-10-19T12:31:41;17.10;;;13.25;;
47784;SDS011;35233;55.686;37.848;2023-10-19T12:34:07;16.45;;;13.27;;
47784;SDS011;35233;55.686;37.848;2023-10-19T12:36:32;16.50;;;12.43;;
47784;SDS011;35233;55.686;37.848;2023-10-19T12:39:00;17.38;;;13.63;;
47784;SDS011;35233;55.686;37.848;2023-10-19T12:41:26;16.80;;;13.60;;
47784;SDS011;35233;55.686;37.848;2023-10-19T12:43:52;16.90;;;12.55;;
47784;SDS011;35233;55.686;37.848;2023-10-19T12:46:22;18.05;;;13.73;;
47784;SDS011;35233;55.686;37.848;2023-10-19T12:48:52;18.20;;;14.20;;
47784;SDS011;35233;55.686;37.848;2023-10-19T12:51:21;18.45;;;14.90;;
47784;SDS011;35233;55.686;37.848;2023-10-19T12:53:54;18.77;;;14.70;;
47784;SDS011;35233;55.686;37.848;2023-10-19T12:56:20;19.52;;;15.80;;
47784;SDS011;35233;55.686;37.848;2023-10-19T12:58:46;21.98;;;16.45;;
47784;SDS011;35233;55.686;37.848;2023-10-19T13:01:13;23.38;;;18.15;;
47784;SDS011;35233;55.686;37.848;2023-10-19T13:03:44;22.80;;;18.50;;
47784;SDS011;35233;55.686;37.848;2023-10-19T13:06:13;26.33;;;20.23;;
47784;SDS011;35233;55.686;37.848;2023-10-19T13:08:39;28.13;;;21.52;;
47784;SDS011;35233;55.686;37.848;2023-10-19T13:11:06;29.40;;;22.50;;
47784;SDS011;35233;55.686;37.848;2023-10-19T13:13:32;30.23;;;23.38;;
47784;SDS011;35233;55.686;37.848;2023-10-19T13:15:58;30.58;;;22.95;;
47784;SDS011;35233;55.686;37.848;2023-10-19T13:18:24;29.98;;;23.17;;
47784;SDS011;35233;55.686;37.848;2023-10-19T13:20:53;26.85;;;21.45;;
47784;SDS011;35233;55.686;37.848;2023-10-19T13:23:19;26.85;;;21.67;;
47784;SDS011;35233;55.686;37.848;2023-10-19T13:25:48;29.35;;;22.50;;
47784;SDS011;35233;55.686;37.848;2023-10-19T13:28:18;28.02;;;21.48;;
47784;SDS011;35233;55.686;37.848;2023-10-19T13:30:48;27.73;;;21.63;;
47784;SDS011;35233;55.686;37.848;2023-10-19T13:33:15;28.10;;;22.10;;
47784;SDS011;35233;55.686;37.848;2023-10-19T13:35:43;28.35;;;21.65;;
47784;SDS011;35233;55.686;37.848;2023-10-19T13:38:10;26.92;;;20.73;;
47784;SDS011;35233;55.686;37.848;2023-10-19T13:40:38;28.17;;;20.90;;
47784;SDS011;35233;55.686;37.848;2023-10-19T13:43:04;27.63;;;21.42;;
47784;SDS011;35233;55.686;37.848;2023-10-19T13:45:35;27.95;;;21.38;;
47784;SDS011;35233;55.686;37.848;2023-10-19T13:48:02;27.73;;;20.88;;
47784;SDS011;35233;55.686;37.848;2023-10-19T13:50:29;25.63;;;20.15;;
47784;SDS011;35233;55.686;37.848;2023-10-19T13:52:56;26.42;;;20.70;;
47784;SDS011;35233;55.686;37.848;2023-10-19T13:55:25;25.73;;;20.38;;
47784;SDS011;35233;55.686;37.848;2023-10-19T13:57:50;27.35;;;21.33;;
47784;SDS011;35233;55.686;37.848;2023-10-19T14:00:17;28.08;;;21.48;;
47784;SDS011;35233;55.686;37.848;2023-10-19T14:02:55;27.55;;;22.48;;
47784;SDS011;35233;55.686;37.848;2023-10-19T14:05:22;27.52;;;22.35;;
47784;SDS011;35233;55.686;37.848;2023-10-19T14:07:51;29.50;;;24.27;;
47784;SDS011;35233;55.686;37.848;2023-10-19T14:10:19;31.73;;;24.42;;
47784;SDS011;35233;55.686;37.848;2023-10-19T14:12:46;29.55;;;23.58;;
47784;SDS011;35233;55.686;37.848;2023-10-19T14:15:15;30.50;;;23.80;;
47784;SDS011;35233;55.686;37.848;2023-10-19T14:17:46;30.85;;;22.33;;
47784;SDS011;35233;55.686;37.848;2023-10-19T14:20:13;29.35;;;22.95;;
47784;SDS011;35233;55.686;37.848;2023-10-19T14:22:44;41.55;;;22.90;;
47784;SDS011;35233;55.686;37.848;2023-10-19T14:25:11;28.90;;;21.55;;
47784;SDS011;35233;55.686;37.848;2023-10-19T14:27:41;31.27;;;22.08;;
47784;SDS011;35233;55.686;37.848;2023-10-19T14:30:08;30.98;;;21.98;;
47784;SDS011;35233;55.686;37.848;2023-10-19T14:32:41;27.95;;;20.58;;
47784;SDS011;35233;55.686;37.848;2023-10-19T14:35:08;33.17;;;21.08;;
47784;SDS011;35233;55.686;37.848;2023-10-19T14:37:39;30.60;;;21.13;;
47784;SDS011;35233;55.686;37.848;2023-10-19T14:40:07;27.45;;;20.02;;
47784;SDS011;35233;55.686;37.848;2023-10-19T14:42:38;26.98;;;19.05;;
47784;SDS011;35233;55.686;37.848;2023-10-19T14:45:14;28.67;;;19.50;;
47784;SDS011;35233;55.686;37.848;2023-10-19T14:47:41;23.90;;;18.73;;
47784;SDS011;35233;55.686;37.848;2023-10-19T14:50:17;30.23;;;19.08;;